Time;durP1;ratioP1;P1;durP2;ratioP2;P2;SDS_P1;SDS_P2;PMS_P1;PMS_P2;Temp;Humidity;BMP_temperature;BMP_pressure;BME280_temperature;BME280_humidity;BME280_pressure;Samples;Min_cycle;Max_cycle;Signal;HPM_P1;HPM_P2
2022/05/02 00:00:08;;;;;;;13.65;9.10;;;;;;;;;;5062985;28;20049;-80
2022/05/02 00:02:35;;;;;;;15.20;11.63;;;;;;;;;;5047674;28;20060;-80
2022/05/02 00:05:01;;;;;;;16.02;11.52;;;;;;;;;;5062373;28;20037;-80
2022/05/02 00:07:27;;;;;;;15.20;10.35;;;;;;;;;;5061264;28;20041;-80
2022/05/02 00:09:53;;;;;;;13.77;10.15;;;;;;;;;;5060366;28;20095;-81
2022/05/02 00:12:19;;;;;;;13.00;8.93;;;;;;;;;;5046848;28;20041;-80
2022/05/02 00:14:45;;;;;;;12.73;9.52;;;;;;;;;;5060469;28;20093;-80
2022/05/02 00:17:11;;;;;;;13.55;9.85;;;;;;;;;;5059272;28;20499;-80
2022/05/02 00:19:37;;;;;;;12.57;9.82;;;;;;;;;;5042340;28;20037;-79
2022/05/02 00:22:03;;;;;;;16.77;9.88;;;;;;;;;;5027151;28;20043;-80
2022/05/02 00:24:32;;;;;;;13.85;9.10;;;;;;;;;;5064816;28;20060;-81
2022/05/02 00:26:58;;;;;;;12.15;8.90;;;;;;;;;;5038026;28;20045;-80
2022/05/02 00:29:24;;;;;;;15.68;10.25;;;;;;;;;;5063703;28;20045;-81
2022/05/02 00:31:51;;;;;;;13.30;9.52;;;;;;;;;;5061314;28;20037;-81
2022/05/02 00:34:17;;;;;;;15.30;9.93;;;;;;;;;;5064226;28;20124;-80
2022/05/02 00:36:45;;;;;;;12.02;8.82;;;;;;;;;;5062448;28;20064;-80
2022/05/02 00:39:14;;;;;;;15.02;9.25;;;;;;;;;;5064614;28;20041;-81
2022/05/02 00:41:40;;;;;;;13.23;9.20;;;;;;;;;;5062061;28;20043;-80
2022/05/02 00:44:06;;;;;;;14.98;9.98;;;;;;;;;;5058221;28;20109;-80
2022/05/02 00:46:32;;;;;;;12.55;10.65;;;;;;;;;;5028383;28;20087;-81
2022/05/02 00:48:58;;;;;;;11.82;9.80;;;;;;;;;;5045333;28;20045;-79
2022/05/02 00:51:24;;;;;;;13.57;10.77;;;;;;;;;;5063673;28;20052;-82
2022/05/02 00:53:51;;;;;;;13.70;10.18;;;;;;;;;;5059149;28;20044;-81
2022/05/02 00:56:17;;;;;;;13.60;9.32;;;;;;;;;;5063469;28;20102;-81
2022/05/02 00:58:46;;;;;;;13.88;10.50;;;;;;;;;;5037385;28;20061;-80
2022/05/02 01:01:12;;;;;;;13.52;10.50;;;;;;;;;;5044938;28;20100;-81
2022/05/02 01:03:38;;;;;;;16.20;10.23;;;;;;;;;;5061189;28;20495;-81
2022/05/02 01:08:49;;;;;;;12.90;10.23;;;;;;;;;;5061996;28;20072;-80
2022/05/02 01:11:15;;;;;;;14.25;11.05;;;;;;;;;;5062082;28;20045;-80
2022/05/02 01:13:45;;;;;;;15.02;11.02;;;;;;;;;;5061508;28;20045;-81
2022/05/02 01:16:13;;;;;;;15.63;10.77;;;;;;;;;;5059298;28;20068;-81
2022/05/02 01:18:39;;;;;;;14.98;10.60;;;;;;;;;;5061726;28;20526;-81
2022/05/02 01:21:15;;;;;;;15.23;11.85;;;;;;;;;;5058385;28;20056;-81
2022/05/02 01:23:42;;;;;;;14.70;11.32;;;;;;;;;;5058297;28;20049;-80
2022/05/02 01:26:08;;;;;;;14.35;11.63;;;;;;;;;;5060373;28;20395;-80
2022/05/02 01:28:41;;;;;;;16.17;11.30;;;;;;;;;;5013644;28;20128;-81
2022/05/02 01:31:07;;;;;;;15.40;11.60;;;;;;;;;;5055546;28;20037;-81
2022/05/02 01:33:34;;;;;;;15.88;11.35;;;;;;;;;;5058966;28;20489;-81
2022/05/02 01:36:00;;;;;;;13.27;11.30;;;;;;;;;;5059209;28;20041;-81
2022/05/02 01:38:26;;;;;;;14.73;11.00;;;;;;;;;;5061357;28;20119;-82
2022/05/02 01:40:55;;;;;;;15.30;10.73;;;;;;;;;;5058596;28;20068;-81
2022/05/02 01:43:21;;;;;;;15.32;10.88;;;;;;;;;;5058959;28;20044;-80
2022/05/02 01:45:47;;;;;;;14.32;11.55;;;;;;;;;;5056048;28;20062;-81
2022/05/02 01:48:13;;;;;;;15.05;10.98;;;;;;;;;;5041574;28;20445;-81
2022/05/02 01:50:39;;;;;;;15.85;11.48;;;;;;;;;;5026058;28;20405;-80
2022/05/02 01:53:07;;;;;;;15.93;12.18;;;;;;;;;;5060426;28;20041;-80
2022/05/02 01:55:33;;;;;;;14.93;11.68;;;;;;;;;;5056195;28;20055;-79
2022/05/02 01:57:59;;;;;;;17.85;13.57;;;;;;;;;;5049572;28;20045;-80
2022/05/02 02:00:25;;;;;;;18.38;12.90;;;;;;;;;;5060567;28;20091;-80
2022/05/02 02:02:54;;;;;;;16.42;13.32;;;;;;;;;;5059696;28;20075;-81
2022/05/02 02:08:04;;;;;;;18.42;15.35;;;;;;;;;;5040863;28;20088;-82
2022/05/02 02:10:31;;;;;;;18.33;14.93;;;;;;;;;;5040635;28;20048;-80
2022/05/02 02:12:57;;;;;;;19.33;14.90;;;;;;;;;;5058942;28;20107;-80
2022/05/02 02:15:23;;;;;;;20.83;15.00;;;;;;;;;;5056599;28;20487;-81
2022/05/02 02:17:51;;;;;;;19.02;15.38;;;;;;;;;;5058297;28;20041;-80
2022/05/02 02:20:17;;;;;;;21.13;15.57;;;;;;;;;;5024855;28;20040;-81
2022/05/02 02:22:43;;;;;;;19.75;15.85;;;;;;;;;;5057598;28;20045;-81
2022/05/02 02:25:09;;;;;;;22.42;16.50;;;;;;;;;;5039957;28;20091;-81
2022/05/02 02:27:35;;;;;;;21.25;17.40;;;;;;;;;;5061848;28;20122;-81
2022/05/02 02:30:01;;;;;;;22.70;17.83;;;;;;;;;;5060255;28;20097;-81
2022/05/02 02:32:33;;;;;;;21.90;17.42;;;;;;;;;;5061378;28;20127;-81
2022/05/02 02:34:59;;;;;;;23.00;17.52;;;;;;;;;;5039730;28;20123;-81
2022/05/02 02:37:25;;;;;;;21.75;17.13;;;;;;;;;;5043413;28;20066;-81
2022/05/02 02:39:54;;;;;;;20.73;16.80;;;;;;;;;;5055606;28;20223;-81
2022/05/02 02:42:22;;;;;;;19.23;16.70;;;;;;;;;;5045724;28;20041;-80
2022/05/02 02:44:51;;;;;;;22.30;16.75;;;;;;;;;;5058786;28;20045;-81
2022/05/02 02:47:17;;;;;;;20.38;16.08;;;;;;;;;;5060019;28;20049;-81
2022/05/02 02:49:43;;;;;;;20.88;15.80;;;;;;;;;;5042541;28;20049;-80
2022/05/02 02:52:09;;;;;;;19.05;16.27;;;;;;;;;;5060015;28;20137;-80
2022/05/02 02:54:35;;;;;;;24.48;15.13;;;;;;;;;;5040885;28;20043;-80
2022/05/02 02:57:01;;;;;;;18.80;15.55;;;;;;;;;;5060684;28;20037;-82
2022/05/02 02:59:27;;;;;;;20.13;16.52;;;;;;;;;;5059556;28;20136;-81
2022/05/02 03:01:53;;;;;;;20.15;15.75;;;;;;;;;;5041792;28;20052;-81
2022/05/02 03:07:05;;;;;;;23.40;15.48;;;;;;;;;;5055690;28;20127;-81
2022/05/02 03:09:31;;;;;;;18.55;15.15;;;;;;;;;;5058684;28;20091;-81
2022/05/02 03:11:58;;;;;;;19.67;15.85;;;;;;;;;;5039984;28;20128;-81
2022/05/02 03:14:24;;;;;;;20.08;15.00;;;;;;;;;;5042143;28;20045;-81
2022/05/02 03:16:50;;;;;;;18.80;16.00;;;;;;;;;;5059855;28;20162;-81
2022/05/02 03:19:16;;;;;;;17.67;14.75;;;;;;;;;;5040095;28;20049;-81
2022/05/02 03:21:42;;;;;;;22.33;15.00;;;;;;;;;;5057916;28;20052;-81
2022/05/02 03:24:08;;;;;;;18.73;15.05;;;;;;;;;;5050278;28;20124;-81
2022/05/02 03:26:34;;;;;;;16.35;14.48;;;;;;;;;;5059159;28;20048;-81
2022/05/02 03:29:00;;;;;;;14.60;12.95;;;;;;;;;;5027042;28;20045;-80
2022/05/02 03:31:26;;;;;;;16.73;14.27;;;;;;;;;;5012548;28;20107;-81
2022/05/02 03:33:55;;;;;;;17.13;14.38;;;;;;;;;;5044016;28;20124;-81
2022/05/02 03:36:21;;;;;;;19.52;15.45;;;;;;;;;;5055532;28;20041;-81
2022/05/02 03:38:47;;;;;;;20.38;15.27;;;;;;;;;;5014034;28;20059;-81
2022/05/02 03:41:13;;;;;;;19.67;16.10;;;;;;;;;;5061481;28;20041;-81
2022/05/02 03:43:39;;;;;;;16.80;14.43;;;;;;;;;;5061918;28;20403;-80
2022/05/02 03:46:05;;;;;;;17.23;13.93;;;;;;;;;;5060391;28;20048;-80
2022/05/02 03:48:31;;;;;;;15.95;13.73;;;;;;;;;;5055787;28;20079;-81
2022/05/02 03:50:57;;;;;;;20.58;15.25;;;;;;;;;;5034893;28;20121;-80
2022/05/02 03:53:25;;;;;;;19.98;15.65;;;;;;;;;;5043246;28;20414;-81
2022/05/02 03:55:55;;;;;;;20.33;15.57;;;;;;;;;;5041876;28;20044;-80
2022/05/02 03:58:21;;;;;;;17.30;14.93;;;;;;;;;;5027472;28;20061;-81
2022/05/02 04:00:48;;;;;;;18.73;16.65;;;;;;;;;;5044130;28;20049;-80
2022/05/02 04:03:14;;;;;;;20.48;16.75;;;;;;;;;;5042452;28;20131;-82
2022/05/02 04:05:40;;;;;;;23.33;17.33;;;;;;;;;;5043262;28;20049;-81
2022/05/02 04:08:09;;;;;;;21.17;16.67;;;;;;;;;;5038673;28;20384;-81
2022/05/02 04:10:35;;;;;;;22.20;16.95;;;;;;;;;;5057207;28;20055;-78
2022/05/02 04:13:01;;;;;;;20.42;16.85;;;;;;;;;;5032249;28;20041;-83
2022/05/02 04:15:27;;;;;;;21.38;16.05;;;;;;;;;;5047272;28;20033;-82
2022/05/02 04:17:55;;;;;;;19.48;17.35;;;;;;;;;;5060073;28;20041;-81
2022/05/02 04:20:24;;;;;;;21.20;16.40;;;;;;;;;;5041753;28;20037;-81
2022/05/02 04:22:50;;;;;;;20.65;16.23;;;;;;;;;;5059371;28;20041;-81
2022/05/02 04:25:16;;;;;;;22.98;16.98;;;;;;;;;;5046361;28;20045;-81
2022/05/02 04:27:42;;;;;;;19.55;15.85;;;;;;;;;;5064011;28;20044;-81
2022/05/02 04:30:08;;;;;;;19.58;15.95;;;;;;;;;;5059495;28;20112;-81
2022/05/02 04:32:34;;;;;;;19.60;16.60;;;;;;;;;;5064424;28;20048;-82
2022/05/02 04:35:02;;;;;;;23.90;18.15;;;;;;;;;;5062594;28;20463;-81
2022/05/02 04:37:28;;;;;;;23.38;18.52;;;;;;;;;;5045544;28;20048;-80
2022/05/02 04:39:54;;;;;;;21.58;19.25;;;;;;;;;;5059670;28;20505;-81
2022/05/02 04:42:20;;;;;;;23.65;19.70;;;;;;;;;;5064653;28;20053;-81
2022/05/02 04:44:46;;;;;;;21.77;19.48;;;;;;;;;;5059596;28;20131;-81
2022/05/02 04:47:12;;;;;;;23.60;19.88;;;;;;;;;;5063935;28;20462;-82
2022/05/02 04:49:38;;;;;;;21.95;19.02;;;;;;;;;;5063439;28;20073;-81
2022/05/02 04:52:05;;;;;;;23.33;19.42;;;;;;;;;;5045610;28;20041;-81
2022/05/02 04:54:31;;;;;;;23.20;19.42;;;;;;;;;;5063553;28;20044;-81
2022/05/02 04:56:57;;;;;;;23.55;19.98;;;;;;;;;;5046944;28;20500;-81
2022/05/02 04:59:25;;;;;;;23.92;19.63;;;;;;;;;;5063717;28;20053;-81
2022/05/02 05:01:54;;;;;;;24.95;19.73;;;;;;;;;;5043655;28;20438;-82
2022/05/02 05:04:20;;;;;;;24.85;19.15;;;;;;;;;;5063603;28;20044;-81
2022/05/02 05:06:46;;;;;;;22.50;19.65;;;;;;;;;;5061446;28;20106;-81
2022/05/02 05:09:12;;;;;;;24.13;20.60;;;;;;;;;;5059902;28;20107;-81
2022/05/02 05:11:41;;;;;;;23.83;18.98;;;;;;;;;;5063377;28;20127;-82
2022/05/02 05:17:23;;;;;;;24.00;19.42;;;;;;;;;;5059608;28;20041;-80
2022/05/02 05:20:10;;;;;;;24.50;19.13;;;;;;;;;;5062487;28;20551;-81
2022/05/02 05:22:38;;;;;;;24.65;20.40;;;;;;;;;;5062039;28;20049;-81
2022/05/02 05:25:25;;;;;;;20.90;18.70;;;;;;;;;;5062071;28;20037;-81
2022/05/02 05:27:57;;;;;;;21.85;17.85;;;;;;;;;;5042088;28;20041;-81
2022/05/02 05:30:27;;;;;;;19.55;15.73;;;;;;;;;;5062165;28;20394;-82
2022/05/02 05:32:59;;;;;;;19.63;15.52;;;;;;;;;;5018588;28;20049;-81
2022/05/02 05:35:32;;;;;;;18.65;14.80;;;;;;;;;;5051049;28;20086;-82
2022/05/02 05:38:03;;;;;;;17.27;15.27;;;;;;;;;;5044834;28;20083;-83
2022/05/02 05:40:30;;;;;;;21.75;15.68;;;;;;;;;;5059190;28;20102;-81
2022/05/02 05:43:19;;;;;;;16.35;13.98;;;;;;;;;;5043931;28;20048;-81
2022/05/02 05:45:46;;;;;;;16.00;13.43;;;;;;;;;;5045194;28;20133;-82
2022/05/02 05:48:18;;;;;;;15.73;12.85;;;;;;;;;;5063681;28;20136;-80
2022/05/02 05:50:55;;;;;;;14.45;12.80;;;;;;;;;;5058447;28;20509;-82
2022/05/02 05:53:21;;;;;;;15.18;12.27;;;;;;;;;;5043750;28;20154;-82
2022/05/02 05:56:07;;;;;;;14.50;12.98;;;;;;;;;;5043252;28;20061;-82
2022/05/02 05:58:46;;;;;;;14.88;12.07;;;;;;;;;;5044023;28;20052;-82
2022/05/02 06:01:17;;;;;;;13.35;11.95;;;;;;;;;;5061848;28;20045;-81
2022/05/02 06:04:07;;;;;;;14.52;11.77;;;;;;;;;;5061763;28;20123;-80
2022/05/02 06:06:35;;;;;;;15.30;12.57;;;;;;;;;;5042064;28;20059;-80
2022/05/02 06:09:01;;;;;;;13.77;11.88;;;;;;;;;;5037775;28;20483;-81
2022/05/02 06:11:31;;;;;;;13.73;12.00;;;;;;;;;;5061323;28;20049;-81
2022/05/02 06:13:58;;;;;;;13.32;11.10;;;;;;;;;;5059196;28;20048;-81
2022/05/02 06:19:16;;;;;;;15.07;11.50;;;;;;;;;;5059397;28;20045;-80
2022/05/02 06:21:43;;;;;;;14.52;12.27;;;;;;;;;;5043907;28;20060;-81
2022/05/02 06:24:11;;;;;;;15.73;12.38;;;;;;;;;;5056547;28;20052;-81
2022/05/02 06:26:38;;;;;;;12.73;11.00;;;;;;;;;;5064978;28;20071;-83
2022/05/02 06:29:06;;;;;;;12.52;11.23;;;;;;;;;;5071077;28;20071;-81
2022/05/02 06:31:36;;;;;;;14.75;11.90;;;;;;;;;;5058860;28;20037;-82
2022/05/02 06:34:04;;;;;;;15.70;11.60;;;;;;;;;;5062315;28;20041;-78
2022/05/02 06:36:33;;;;;;;12.95;11.60;;;;;;;;;;5046108;28;20131;-81
2022/05/02 06:38:59;;;;;;;13.90;10.63;;;;;;;;;;5064644;28;20037;-82
2022/05/02 06:41:25;;;;;;;14.82;10.70;;;;;;;;;;5062474;28;20048;-82
2022/05/02 06:44:01;;;;;;;13.48;10.52;;;;;;;;;;5049626;28;20069;-81
2022/05/02 06:46:45;;;;;;;12.77;10.70;;;;;;;;;;5042600;28;20049;-81
2022/05/02 06:49:12;;;;;;;13.70;10.63;;;;;;;;;;5051967;28;20052;-82
2022/05/02 06:51:40;;;;;;;11.90;10.70;;;;;;;;;;5063058;28;20106;-82
2022/05/02 06:54:06;;;;;;;14.25;10.43;;;;;;;;;;5060989;28;20041;-82
2022/05/02 06:56:46;;;;;;;11.07;9.95;;;;;;;;;;5046205;28;20048;-81
2022/05/02 06:59:34;;;;;;;10.73;8.93;;;;;;;;;;5061276;28;20063;-80
2022/05/02 07:02:06;;;;;;;12.25;10.13;;;;;;;;;;5043872;28;20076;-79
2022/05/02 07:04:42;;;;;;;11.90;10.38;;;;;;;;;;5023931;28;20053;-79
2022/05/02 07:07:26;;;;;;;14.45;9.82;;;;;;;;;;5062346;28;20045;-81
2022/05/02 07:10:02;;;;;;;10.98;9.85;;;;;;;;;;5061195;28;20049;-80
2022/05/02 07:12:29;;;;;;;10.23;9.20;;;;;;;;;;5043028;28;20066;-81
2022/05/02 07:14:58;;;;;;;12.25;9.60;;;;;;;;;;5035051;28;20047;-78
2022/05/02 07:17:40;;;;;;;12.02;9.73;;;;;;;;;;5054142;28;20045;-79
2022/05/02 07:20:07;;;;;;;12.88;9.27;;;;;;;;;;5059600;28;20045;-79
2022/05/02 07:22:37;;;;;;;14.60;9.60;;;;;;;;;;5038456;28;20056;-79
2022/05/02 07:25:09;;;;;;;11.73;9.43;;;;;;;;;;5039138;28;20044;-79
2022/05/02 07:27:53;;;;;;;12.43;9.10;;;;;;;;;;5052079;28;20310;-79
2022/05/02 07:30:24;;;;;;;11.05;8.48;;;;;;;;;;5022205;28;20048;-79
2022/05/02 07:32:53;;;;;;;10.40;8.48;;;;;;;;;;5059868;28;20494;-79
2022/05/02 07:35:21;;;;;;;13.13;8.70;;;;;;;;;;5060292;28;20419;-79
2022/05/02 07:37:47;;;;;;;10.93;8.25;;;;;;;;;;5061532;28;20045;-82
2022/05/02 07:40:14;;;;;;;10.30;8.82;;;;;;;;;;5061360;28;20124;-79
2022/05/02 07:42:42;;;;;;;10.52;8.30;;;;;;;;;;5062200;28;20049;-80
2022/05/02 07:45:10;;;;;;;12.57;8.75;;;;;;;;;;5055904;28;20037;-79
2022/05/02 07:47:37;;;;;;;13.73;8.95;;;;;;;;;;5062213;28;20621;-78
2022/05/02 07:50:06;;;;;;;10.82;8.15;;;;;;;;;;5061596;28;20398;-80
2022/05/02 07:52:34;;;;;;;12.07;9.05;;;;;;;;;;5064265;28;20083;-79
2022/05/02 07:55:01;;;;;;;14.82;8.90;;;;;;;;;;5064905;28;20138;-79
2022/05/02 07:57:28;;;;;;;13.40;9.30;;;;;;;;;;5060970;28;20044;-78
2022/05/02 07:59:56;;;;;;;12.43;8.93;;;;;;;;;;5065591;28;20406;-78
2022/05/02 08:02:23;;;;;;;13.35;8.80;;;;;;;;;;5073440;28;20127;-78
2022/05/02 08:04:49;;;;;;;13.45;9.10;;;;;;;;;;5070398;28;20048;-78
2022/05/02 08:07:21;;;;;;;10.35;8.38;;;;;;;;;;5064926;28;20052;-79
2022/05/02 08:09:57;;;;;;;11.20;8.20;;;;;;;;;;5043381;28;20457;-79
2022/05/02 08:12:28;;;;;;;11.73;8.98;;;;;;;;;;5064340;28;20053;-78
2022/05/02 08:15:12;;;;;;;11.88;8.05;;;;;;;;;;5031911;28;20045;-80
2022/05/02 08:17:48;;;;;;;11.10;8.48;;;;;;;;;;5046328;28;20469;-82
2022/05/02 08:20:26;;;;;;;10.13;7.28;;;;;;;;;;5059884;28;20041;-80
2022/05/02 08:28:57;;;;;;;11.55;8.57;;;;;;;;;;5047852;28;20141;-78
2022/05/02 08:31:51;;;;;;;12.30;8.48;;;;;;;;;;5064326;28;20093;-79
2022/05/02 08:34:20;;;;;;;10.35;8.02;;;;;;;;;;5062420;28;20399;-79
2022/05/02 08:36:49;;;;;;;11.32;8.48;;;;;;;;;;5046747;28;20049;-78
2022/05/02 08:39:18;;;;;;;11.55;7.60;;;;;;;;;;5061825;28;20103;-78
2022/05/02 08:41:44;;;;;;;11.63;7.88;;;;;;;;;;5071021;28;20513;-78
2022/05/02 08:44:19;;;;;;;11.98;8.43;;;;;;;;;;5078843;28;20119;-79
2022/05/02 08:46:48;;;;;;;11.60;8.25;;;;;;;;;;5062883;28;20049;-78
2022/05/02 08:49:33;;;;;;;12.20;8.57;;;;;;;;;;5043018;28;20045;-78
2022/05/02 08:52:18;;;;;;;10.10;7.57;;;;;;;;;;5064699;28;20406;-77
2022/05/02 08:55:03;;;;;;;12.23;8.15;;;;;;;;;;5046320;28;20056;-78
2022/05/02 08:57:53;;;;;;;10.90;7.53;;;;;;;;;;5061141;28;20116;-77
2022/05/02 09:00:22;;;;;;;10.32;7.72;;;;;;;;;;5062398;28;20063;-78
2022/05/02 09:03:07;;;;;;;11.20;7.78;;;;;;;;;;5047390;28;20057;-76
2022/05/02 09:05:40;;;;;;;10.88;7.70;;;;;;;;;;5062034;28;20033;-80
2022/05/02 09:08:07;;;;;;;12.07;7.68;;;;;;;;;;5065863;28;20100;-82
2022/05/02 09:10:53;;;;;;;13.07;7.50;;;;;;;;;;5055877;28;20037;-80
2022/05/02 09:13:32;;;;;;;10.30;6.97;;;;;;;;;;5011409;28;20084;-81
2022/05/02 09:16:25;;;;;;;10.77;7.10;;;;;;;;;;5064429;28;20102;-82
2022/05/02 09:19:00;;;;;;;10.60;6.43;;;;;;;;;;5065697;28;20056;-82
2022/05/02 09:21:26;;;;;;;9.98;6.40;;;;;;;;;;5062999;28;20395;-83
2022/05/02 09:24:05;;;;;;;11.57;7.05;;;;;;;;;;5067475;28;20124;-83
2022/05/02 09:26:49;;;;;;;10.20;6.70;;;;;;;;;;5037241;28;20048;-83
2022/05/02 09:29:18;;;;;;;9.98;6.10;;;;;;;;;;5049763;28;20114;-83
2022/05/02 09:31:44;;;;;;;10.00;6.88;;;;;;;;;;5051421;28;20048;-82
2022/05/02 09:34:18;;;;;;;11.13;7.05;;;;;;;;;;5055311;28;20499;-82
2022/05/02 09:36:53;;;;;;;10.18;5.70;;;;;;;;;;5051998;28;20052;-83
2022/05/02 09:39:22;;;;;;;9.07;5.25;;;;;;;;;;5046827;28;20048;-83
2022/05/02 09:42:07;;;;;;;9.63;6.13;;;;;;;;;;5072530;28;20049;-83
2022/05/02 09:50:22;;;;;;;9.90;6.47;;;;;;;;;;5077194;28;20067;-84
2022/05/02 09:52:50;;;;;;;8.75;5.97;;;;;;;;;;5076862;28;20028;-84
2022/05/02 09:58:33;;;;;;;11.05;6.75;;;;;;;;;;5034130;28;20057;-83
2022/05/02 10:01:21;;;;;;;10.10;7.10;;;;;;;;;;5023450;28;20047;-84
2022/05/02 10:03:59;;;;;;;9.18;7.55;;;;;;;;;;5019035;28;20076;-85
2022/05/02 10:06:39;;;;;;;9.85;7.70;;;;;;;;;;5012442;28;20062;-85
2022/05/02 10:09:16;;;;;;;11.13;7.55;;;;;;;;;;5016057;28;20114;-86
2022/05/02 10:11:47;;;;;;;10.65;7.38;;;;;;;;;;5003289;28;20034;-84
2022/05/02 10:14:35;;;;;;;12.07;8.02;;;;;;;;;;5019166;28;20049;-84
2022/05/02 10:17:06;;;;;;;9.27;7.18;;;;;;;;;;5019399;28;20045;-87
2022/05/02 10:19:35;;;;;;;12.23;8.55;;;;;;;;;;4998170;28;20551;-86
2022/05/02 10:22:16;;;;;;;11.55;7.80;;;;;;;;;;4991409;28;20060;-86
2022/05/02 10:25:03;;;;;;;11.40;7.68;;;;;;;;;;5004251;28;20046;-85
2022/05/02 10:27:48;;;;;;;10.95;7.43;;;;;;;;;;5017932;28;20142;-88
2022/05/02 10:30:17;;;;;;;10.57;8.05;;;;;;;;;;5013311;28;20042;-90
2022/05/02 10:32:45;;;;;;;11.65;8.20;;;;;;;;;;5038197;28;20053;-86
2022/05/02 10:35:14;;;;;;;11.93;7.57;;;;;;;;;;5034051;28;20045;-86
2022/05/02 10:37:59;;;;;;;11.98;7.63;;;;;;;;;;5036673;28;20051;-87
2022/05/02 10:40:42;;;;;;;10.27;7.75;;;;;;;;;;5050900;28;20101;-86
2022/05/02 10:43:09;;;;;;;11.48;7.40;;;;;;;;;;5056401;28;20144;-85
2022/05/02 10:45:40;;;;;;;11.05;7.20;;;;;;;;;;5028520;28;20041;-86
2022/05/02 10:48:11;;;;;;;10.77;7.95;;;;;;;;;;5057748;28;20044;-82
2022/05/02 10:50:38;;;;;;;11.20;7.93;;;;;;;;;;5066184;28;20041;-88
2022/05/02 10:53:22;;;;;;;10.75;8.05;;;;;;;;;;5050607;28;20036;-82
2022/05/02 10:56:15;;;;;;;11.32;7.93;;;;;;;;;;5062158;28;20040;-86
2022/05/02 10:58:44;;;;;;;11.32;8.00;;;;;;;;;;5080072;28;20096;-85
2022/05/02 11:01:10;;;;;;;10.93;7.90;;;;;;;;;;5057045;28;20049;-85
2022/05/02 11:03:55;;;;;;;10.73;7.78;;;;;;;;;;5059029;28;20039;-84
2022/05/02 11:06:24;;;;;;;10.52;7.35;;;;;;;;;;5021149;28;20060;-85
2022/05/02 11:09:06;;;;;;;11.75;7.25;;;;;;;;;;5067281;28;20445;-86
2022/05/02 11:11:41;;;;;;;11.05;7.47;;;;;;;;;;5052239;28;20108;-86
2022/05/02 11:14:14;;;;;;;12.55;8.30;;;;;;;;;;5047468;28;20041;-85
2022/05/02 11:16:43;;;;;;;10.43;6.93;;;;;;;;;;5013041;28;20057;-85
2022/05/02 11:22:23;;;;;;;11.82;7.28;;;;;;;;;;5047931;28;20411;-85
2022/05/02 11:24:55;;;;;;;10.85;7.20;;;;;;;;;;5032771;28;20093;-85
2022/05/02 11:27:27;;;;;;;10.73;8.02;;;;;;;;;;5036113;28;20045;-84
2022/05/02 11:30:02;;;;;;;10.10;7.20;;;;;;;;;;5055147;28;20049;-84
2022/05/02 11:33:07;;;;;;;10.75;7.15;;;;;;;;;;5074212;28;20063;-84
2022/05/02 11:35:35;;;;;;;9.93;7.45;;;;;;;;;;5074384;28;20468;-85
2022/05/02 11:38:10;;;;;;;10.32;7.63;;;;;;;;;;5040877;28;20049;-85
2022/05/02 11:40:42;;;;;;;11.75;7.68;;;;;;;;;;5074798;28;20040;-84
2022/05/02 11:43:09;;;;;;;11.43;7.47;;;;;;;;;;5089053;28;20115;-85
2022/05/02 11:45:45;;;;;;;9.52;7.45;;;;;;;;;;5094020;28;20127;-84
2022/05/02 11:48:20;;;;;;;11.13;7.38;;;;;;;;;;5096435;28;20051;-84
2022/05/02 11:50:47;;;;;;;13.95;7.35;;;;;;;;;;5092949;28;20041;-83
2022/05/02 11:53:14;;;;;;;12.32;7.28;;;;;;;;;;5090849;28;20051;-85
2022/05/02 11:55:51;;;;;;;11.95;8.00;;;;;;;;;;5080423;28;20025;-85
2022/05/02 11:58:36;;;;;;;9.60;7.07;;;;;;;;;;5099151;28;20063;-84
2022/05/02 12:01:04;;;;;;;10.00;6.35;;;;;;;;;;5094416;28;20048;-83
2022/05/02 12:03:50;;;;;;;10.13;6.63;;;;;;;;;;5062597;28;20407;-83
2022/05/02 12:06:17;;;;;;;8.95;5.88;;;;;;;;;;5057291;28;20249;-85
2022/05/02 12:08:46;;;;;;;11.32;6.80;;;;;;;;;;5071041;28;20044;-84
2022/05/02 12:11:13;;;;;;;9.52;6.75;;;;;;;;;;5085651;28;20040;-85
2022/05/02 12:13:50;;;;;;;10.27;6.68;;;;;;;;;;5073538;28;20125;-85
2022/05/02 12:16:20;;;;;;;9.23;6.68;;;;;;;;;;5073987;28;20045;-85
2022/05/02 12:18:46;;;;;;;10.43;7.10;;;;;;;;;;5074591;28;20502;-85
2022/05/02 12:21:31;;;;;;;8.38;6.25;;;;;;;;;;5090111;28;20399;-85
2022/05/02 12:23:58;;;;;;;9.32;6.75;;;;;;;;;;5073703;28;20052;-84
2022/05/02 12:26:25;;;;;;;14.05;6.85;;;;;;;;;;5057248;28;20093;-84
2022/05/02 12:28:58;;;;;;;9.48;6.72;;;;;;;;;;5072375;28;20036;-85
2022/05/02 12:31:28;;;;;;;13.13;6.53;;;;;;;;;;5090830;28;20048;-84
2022/05/02 12:33:56;;;;;;;9.53;6.57;;;;;;;;;;5068624;28;20083;-85
2022/05/02 12:36:25;;;;;;;8.25;5.85;;;;;;;;;;5048951;28;20347;-84
2022/05/02 12:38:55;;;;;;;8.80;6.05;;;;;;;;;;5061832;28;20041;-85
2022/05/02 12:41:26;;;;;;;9.17;6.07;;;;;;;;;;5052560;28;20048;-87
2022/05/02 12:43:54;;;;;;;10.57;5.97;;;;;;;;;;5069377;28;20041;-83
2022/05/02 12:46:34;;;;;;;;;;;;;;;;;;;;;
2022/05/02 12:49:14;;;;;;;10.20;6.90;;;;;;;;;;5046660;28;20135;-84
2022/05/02 12:51:52;;;;;;;8.15;5.82;;;;;;;;;;5050185;28;20041;-85
2022/05/02 12:54:18;;;;;;;11.32;6.68;;;;;;;;;;5050371;28;20439;-84
2022/05/02 13:02:35;;;;;;;8.90;6.35;;;;;;;;;;5051515;28;20113;-86
2022/05/02 13:05:05;;;;;;;7.22;5.32;;;;;;;;;;5052225;28;20057;-86
2022/05/02 13:07:37;;;;;;;10.13;5.43;;;;;;;;;;5069493;28;20074;-86
2022/05/02 13:10:04;;;;;;;7.30;5.00;;;;;;;;;;5052776;28;20052;-86
2022/05/02 13:12:33;;;;;;;8.38;5.03;;;;;;;;;;5048253;28;20041;-85
2022/05/02 13:15:00;;;;;;;8.43;5.10;;;;;;;;;;5032606;28;20042;-86
2022/05/02 13:17:26;;;;;;;7.60;4.95;;;;;;;;;;5035457;28;20053;-85
2022/05/02 13:19:53;;;;;;;7.53;4.47;;;;;;;;;;5052440;28;20046;-86
2022/05/02 13:22:20;;;;;;;10.10;5.32;;;;;;;;;;5052605;28;20045;-85
2022/05/02 13:24:53;;;;;;;9.38;5.50;;;;;;;;;;5087563;28;20152;-87
2022/05/02 13:27:23;;;;;;;10.93;5.32;;;;;;;;;;5089544;28;20041;-87
2022/05/02 13:29:52;;;;;;;7.97;5.43;;;;;;;;;;5088538;28;20051;-86
2022/05/02 13:32:25;;;;;;;9.63;5.40;;;;;;;;;;5069744;28;20056;-86
2022/05/02 13:34:54;;;;;;;9.52;5.47;;;;;;;;;;5072086;28;20051;-87
2022/05/02 13:37:32;;;;;;;8.00;5.35;;;;;;;;;;5069273;28;20056;-88
2022/05/02 13:40:08;;;;;;;9.10;5.80;;;;;;;;;;5069413;28;20044;-86
2022/05/02 13:42:35;;;;;;;8.00;5.30;;;;;;;;;;5089651;28;20050;-87
2022/05/02 13:45:03;;;;;;;7.85;5.00;;;;;;;;;;5057462;28;20074;-86
2022/05/02 13:47:34;;;;;;;7.38;5.00;;;;;;;;;;5092316;28;20044;-85
2022/05/02 13:50:12;;;;;;;9.75;5.15;;;;;;;;;;5086153;28;20064;-83
2022/05/02 13:52:47;;;;;;;6.72;4.28;;;;;;;;;;5067093;28;20491;-87
2022/05/02 13:55:42;;;;;;;7.90;4.60;;;;;;;;;;5054578;28;20033;-88
2022/05/02 13:58:17;;;;;;;7.47;4.75;;;;;;;;;;5071711;28;20052;-87
2022/05/02 14:01:26;;;;;;;6.70;4.22;;;;;;;;;;5072278;28;20499;-89
2022/05/02 14:03:53;;;;;;;8.48;5.43;;;;;;;;;;5066623;28;20036;-89
2022/05/02 14:06:30;;;;;;;9.65;6.10;;;;;;;;;;5039418;28;20108;-90
2022/05/02 14:08:57;;;;;;;9.32;5.70;;;;;;;;;;5075230;28;20049;-90
2022/05/02 14:11:30;;;;;;;9.32;5.65;;;;;;;;;;5073581;28;20041;-87
2022/05/02 14:14:07;;;;;;;8.77;6.45;;;;;;;;;;5060747;28;20048;-89
2022/05/02 14:16:35;;;;;;;9.18;5.90;;;;;;;;;;5055055;28;20052;-88
2022/05/02 14:19:02;;;;;;;8.43;5.90;;;;;;;;;;5048702;28;20041;-82
2022/05/02 14:21:31;;;;;;;9.50;6.10;;;;;;;;;;5044513;28;20045;-84
2022/05/02 14:23:58;;;;;;;10.77;6.60;;;;;;;;;;5047736;28;20130;-82
2022/05/02 14:26:25;;;;;;;14.57;6.18;;;;;;;;;;5030561;28;20052;-83
2022/05/02 14:28:55;;;;;;;9.82;7.10;;;;;;;;;;5065507;28;20037;-83
2022/05/02 14:31:22;;;;;;;12.30;6.75;;;;;;;;;;5066344;28;20081;-84
2022/05/02 14:33:48;;;;;;;9.07;6.55;;;;;;;;;;5046516;28;20433;-83
2022/05/02 14:36:15;;;;;;;11.80;7.00;;;;;;;;;;5064748;28;20041;-82
2022/05/02 14:38:42;;;;;;;9.48;6.95;;;;;;;;;;5063966;28;20098;-82
2022/05/02 14:41:09;;;;;;;11.15;6.85;;;;;;;;;;5030387;28;20073;-84
2022/05/02 14:43:36;;;;;;;10.63;7.20;;;;;;;;;;5045515;28;21001;-81
2022/05/02 14:46:02;;;;;;;11.77;6.65;;;;;;;;;;5046880;28;20045;-83
2022/05/02 14:48:28;;;;;;;12.23;6.43;;;;;;;;;;5045993;28;20044;-84
2022/05/02 14:51:00;;;;;;;9.63;6.63;;;;;;;;;;5074865;28;20144;-81
2022/05/02 14:53:32;;;;;;;12.00;6.32;;;;;;;;;;5067589;28;20096;-84
2022/05/02 14:55:59;;;;;;;10.50;6.63;;;;;;;;;;5063412;28;20132;-84
2022/05/02 14:58:26;;;;;;;10.18;6.20;;;;;;;;;;5063998;28;20077;-83
2022/05/02 15:00:56;;;;;;;9.15;6.70;;;;;;;;;;5064929;28;20049;-83
2022/05/02 15:03:27;;;;;;;9.07;6.63;;;;;;;;;;5046684;28;20483;-83
2022/05/02 15:05:56;;;;;;;9.38;6.15;;;;;;;;;;5065354;28;20044;-85
2022/05/02 15:08:34;;;;;;;9.63;6.35;;;;;;;;;;5063509;28;20418;-83
2022/05/02 15:11:04;;;;;;;9.13;6.10;;;;;;;;;;5047863;28;20049;-84
2022/05/02 15:13:49;;;;;;;7.97;6.60;;;;;;;;;;5052643;28;20127;-82
2022/05/02 15:16:34;;;;;;;10.25;6.80;;;;;;;;;;5066280;28;20047;-82
2022/05/02 15:21:54;;;;;;;9.27;6.75;;;;;;;;;;5050162;28;20049;-83
2022/05/02 15:24:41;;;;;;;15.25;7.00;;;;;;;;;;5059763;28;20044;-83
2022/05/02 15:36:39;;;;;;;11.00;6.10;;;;;;;;;;5067349;28;20068;-82
2022/05/02 15:38:48;;;;;;;15.95;7.75;;;;;;;;;;5046704;28;20077;-84